createdAt,value
2023-04-30T00:01:07.811Z,14.10
2023-04-30T00:03:36.194Z,14.90
2023-04-30T00:06:04.734Z,17.00
2023-04-30T00:08:33.172Z,16.10
2023-04-30T00:11:01.425Z,17.20
2023-04-30T00:13:29.658Z,16.00
2023-04-30T00:15:58.031Z,16.20
2023-04-30T00:18:26.290Z,16.30
2023-04-30T00:20:54.760Z,17.80
2023-04-30T00:23:23.173Z,18.20
2023-04-30T00:25:51.503Z,19.20
2023-04-30T00:28:19.759Z,21.40
2023-04-30T00:30:48.294Z,20.80
2023-04-30T00:33:16.534Z,20.10
2023-04-30T00:35:44.939Z,21.00
2023-04-30T00:38:13.328Z,22.40
2023-04-30T00:40:44.595Z,22.00
2023-04-30T00:43:12.872Z,23.50
2023-04-30T00:45:41.341Z,22.40
2023-04-30T00:48:09.657Z,23.10
2023-04-30T00:50:38.280Z,21.30
2023-04-30T00:53:07.025Z,23.00
2023-04-30T00:55:35.840Z,23.20
2023-04-30T00:58:04.237Z,22.70
2023-04-30T01:00:33.019Z,23.70
2023-04-30T01:03:01.964Z,24.30
2023-04-30T01:05:30.988Z,24.70
2023-04-30T01:07:59.572Z,22.70
2023-04-30T01:10:36.066Z,25.10
2023-04-30T01:13:13.090Z,25.20
2023-04-30T01:16:00.691Z,26.50
2023-04-30T01:18:40.017Z,25.40
2023-04-30T01:21:09.266Z,26.40
2023-04-30T01:24:18.736Z,26.20
2023-04-30T01:27:07.087Z,25.20
2023-04-30T01:30:01.960Z,24.60
2023-04-30T01:32:30.374Z,25.20
2023-04-30T01:34:59.718Z,24.60
2023-04-30T01:38:00.170Z,23.70
2023-04-30T01:40:41.633Z,23.90
2023-04-30T01:43:23.288Z,23.60
2023-04-30T01:46:22.858Z,22.90
2023-04-30T01:48:54.721Z,24.50
2023-04-30T01:51:58.955Z,25.40
2023-04-30T01:54:38.682Z,23.00
2023-04-30T01:57:09.920Z,23.90
2023-04-30T01:59:39.856Z,23.80
2023-04-30T02:02:08.266Z,23.60
2023-04-30T02:04:36.791Z,23.10
2023-04-30T02:07:05.568Z,24.50
2023-04-30T02:09:33.901Z,25.10
2023-04-30T02:12:03.188Z,22.40
2023-04-30T02:14:32.315Z,22.60
2023-04-30T02:17:00.714Z,23.10
2023-04-30T02:19:29.220Z,21.90
2023-04-30T02:21:57.551Z,22.10
2023-04-30T02:24:25.841Z,23.00
2023-04-30T02:26:54.168Z,22.00
2023-04-30T02:29:22.471Z,21.60
2023-04-30T02:31:50.884Z,22.90
2023-04-30T02:34:19.204Z,22.80
2023-04-30T02:36:47.479Z,21.20
2023-04-30T02:39:15.789Z,20.90
2023-04-30T02:41:44.116Z,20.40
2023-04-30T02:44:12.570Z,18.00
2023-04-30T02:46:41.026Z,18.10
2023-04-30T02:49:09.258Z,16.90
2023-04-30T02:51:37.451Z,15.40
2023-04-30T02:54:05.824Z,17.40
2023-04-30T02:56:34.679Z,18.30
2023-04-30T02:59:03.012Z,21.50
2023-04-30T03:01:31.399Z,19.90
2023-04-30T03:03:59.736Z,22.80
2023-04-30T03:06:28.258Z,21.50
2023-04-30T03:08:56.623Z,21.00
2023-04-30T03:11:24.829Z,23.10
2023-04-30T03:13:54.170Z,24.30
2023-04-30T03:16:22.718Z,22.90
2023-04-30T03:18:51.244Z,22.50
2023-04-30T03:21:19.679Z,22.10
2023-04-30T03:23:48.044Z,21.00
2023-04-30T03:26:16.373Z,19.50
2023-04-30T03:28:44.681Z,17.30
2023-04-30T03:31:13.108Z,17.40
2023-04-30T03:33:41.507Z,17.80
2023-04-30T03:36:11.111Z,16.50
2023-04-30T03:38:39.518Z,17.10
2023-04-30T03:41:07.848Z,16.70
2023-04-30T03:43:36.991Z,16.90
2023-04-30T03:46:05.490Z,18.10
2023-04-30T03:48:33.851Z,19.00
2023-04-30T03:51:02.383Z,18.60
2023-04-30T03:53:30.835Z,17.90
2023-04-30T03:55:59.350Z,18.00
2023-04-30T03:58:28.354Z,19.80
2023-04-30T04:00:56.756Z,18.80
2023-04-30T04:03:25.548Z,20.00
2023-04-30T04:05:53.864Z,21.20
2023-04-30T04:08:22.369Z,20.10
2023-04-30T04:10:50.803Z,21.10
2023-04-30T04:13:24.567Z,19.80
2023-04-30T04:15:53.154Z,19.70
2023-04-30T04:18:23.490Z,19.50
2023-04-30T04:20:51.815Z,20.20
2023-04-30T04:23:21.308Z,20.50
2023-04-30T04:25:49.867Z,20.90
2023-04-30T04:28:18.382Z,19.60
2023-04-30T04:30:46.682Z,18.80
2023-04-30T04:33:15.105Z,20.70
2023-04-30T04:35:43.342Z,18.40
2023-04-30T04:38:11.687Z,15.10
2023-04-30T04:40:40.099Z,17.30
2023-04-30T04:43:08.407Z,14.40
2023-04-30T04:45:37.897Z,16.70
2023-04-30T04:48:06.235Z,18.30
2023-04-30T04:50:34.847Z,15.00
2023-04-30T04:53:03.147Z,13.00
2023-04-30T04:55:31.632Z,12.60
2023-04-30T04:57:59.904Z,12.10
2023-04-30T05:00:28.667Z,11.20
2023-04-30T05:02:57.252Z,10.80
2023-04-30T05:05:25.568Z,10.50
2023-04-30T05:07:55.109Z,8.90
2023-04-30T05:10:23.378Z,7.40
2023-04-30T05:12:51.639Z,7.80
2023-04-30T05:15:20.011Z,7.60
2023-04-30T05:17:48.426Z,7.70
2023-04-30T05:20:16.801Z,8.10
2023-04-30T05:22:45.100Z,7.30
2023-04-30T05:25:13.572Z,6.40
2023-04-30T05:27:41.992Z,7.60
2023-04-30T05:30:11.033Z,6.80
2023-04-30T05:32:39.343Z,6.90
2023-04-30T05:35:08.214Z,6.10
2023-04-30T05:37:36.487Z,5.90
2023-04-30T05:40:06.311Z,5.60
2023-04-30T05:42:34.662Z,5.40
2023-04-30T05:45:03.300Z,5.30
2023-04-30T05:47:31.492Z,4.90
2023-04-30T05:49:59.703Z,5.00
2023-04-30T05:52:28.104Z,4.30
2023-04-30T05:54:56.417Z,4.20
2023-04-30T05:57:24.690Z,4.10
2023-04-30T05:59:54.017Z,3.30
2023-04-30T06:02:23.218Z,3.40
2023-04-30T06:04:51.779Z,4.10
2023-04-30T06:07:19.985Z,3.90
2023-04-30T06:09:48.610Z,3.30
2023-04-30T06:12:16.901Z,2.90
2023-04-30T06:14:46.013Z,3.40
2023-04-30T06:17:14.328Z,3.50
2023-04-30T06:19:42.743Z,3.50
2023-04-30T06:22:11.089Z,3.40
2023-04-30T06:24:39.588Z,4.20
2023-04-30T06:27:07.864Z,3.80
2023-04-30T06:29:36.397Z,3.80
2023-04-30T06:32:07.764Z,3.80
2023-04-30T06:34:37.172Z,4.10
2023-04-30T06:37:05.780Z,3.70
2023-04-30T06:39:34.260Z,4.50
2023-04-30T06:42:02.506Z,4.50
2023-04-30T06:44:30.987Z,4.40
2023-04-30T06:46:59.978Z,4.80
2023-04-30T06:49:29.243Z,4.50
2023-04-30T06:51:58.731Z,5.30
2023-04-30T06:54:28.211Z,5.20
2023-04-30T06:56:56.993Z,5.00
2023-04-30T06:59:25.495Z,5.90
2023-04-30T07:01:55.657Z,7.90
2023-04-30T07:04:24.710Z,10.50
2023-04-30T07:06:53.157Z,12.00
2023-04-30T07:09:21.809Z,14.10
2023-04-30T07:11:51.392Z,14.80
2023-04-30T07:14:19.973Z,13.90
2023-04-30T07:16:50.979Z,13.80
2023-04-30T07:19:19.987Z,16.60
2023-04-30T07:21:48.478Z,13.80
2023-04-30T07:24:19.891Z,15.80
2023-04-30T07:26:49.883Z,19.50
2023-04-30T07:29:22.490Z,18.40
2023-04-30T07:31:51.809Z,18.90
2023-04-30T07:34:20.287Z,17.40
2023-04-30T07:36:49.037Z,16.00
2023-04-30T07:39:18.043Z,18.70
2023-04-30T07:41:46.468Z,18.90
2023-04-30T07:44:14.858Z,17.50
2023-04-30T07:46:43.512Z,17.00
2023-04-30T07:49:12.034Z,17.80
2023-04-30T07:51:43.888Z,17.40
2023-04-30T07:54:12.699Z,17.30
2023-04-30T07:56:41.993Z,17.40
2023-04-30T07:59:10.362Z,15.10
2023-04-30T08:01:39.594Z,17.00
2023-04-30T08:04:08.211Z,16.20
2023-04-30T08:06:37.022Z,16.70
2023-04-30T08:09:05.738Z,16.30
2023-04-30T08:11:34.223Z,16.50
2023-04-30T08:14:03.408Z,15.90
2023-04-30T08:16:32.003Z,15.90
2023-04-30T08:19:00.673Z,15.00
2023-04-30T08:21:31.618Z,15.50
2023-04-30T08:24:00.003Z,15.80
2023-04-30T08:26:30.645Z,13.90
2023-04-30T08:28:59.384Z,15.90
2023-04-30T08:31:27.981Z,14.90
2023-04-30T08:33:56.479Z,14.80
2023-04-30T08:36:24.979Z,14.60
2023-04-30T08:38:53.888Z,14.00
2023-04-30T08:41:27.196Z,14.80
2023-04-30T08:43:58.164Z,12.90
2023-04-30T08:46:26.946Z,14.10
2023-04-30T08:48:55.944Z,14.80
2023-04-30T08:51:27.853Z,14.70
2023-04-30T08:53:57.902Z,14.00
2023-04-30T08:56:26.430Z,16.20
2023-04-30T08:58:54.939Z,15.50
2023-04-30T09:01:24.115Z,14.50
2023-04-30T09:03:55.923Z,14.20
2023-04-30T09:06:25.095Z,14.60
2023-04-30T09:08:54.474Z,14.20
2023-04-30T09:11:28.095Z,14.00
2023-04-30T09:14:00.157Z,14.20
2023-04-30T09:16:33.242Z,14.00
2023-04-30T09:19:05.723Z,12.30
2023-04-30T09:21:37.833Z,11.80
2023-04-30T09:24:06.581Z,11.40
2023-04-30T09:26:38.302Z,11.20
2023-04-30T09:29:08.843Z,11.00
2023-04-30T09:31:40.861Z,10.50
2023-04-30T09:34:09.429Z,11.80
2023-04-30T09:36:55.495Z,11.30
2023-04-30T09:39:24.179Z,10.50
2023-04-30T09:43:04.424Z,9.30
2023-04-30T09:45:53.072Z,9.50
2023-04-30T09:48:28.260Z,7.70
2023-04-30T09:50:58.503Z,8.10
2023-04-30T09:53:27.033Z,7.70
2023-04-30T09:55:59.263Z,8.00
2023-04-30T09:58:30.709Z,8.20
2023-04-30T10:01:01.762Z,7.50
2023-04-30T10:03:36.865Z,6.90
2023-04-30T10:08:43.946Z,7.30
2023-04-30T10:11:29.441Z,7.20
2023-04-30T10:14:20.431Z,7.00
2023-04-30T10:17:06.944Z,6.60
2023-04-30T10:19:41.878Z,7.30
2023-04-30T10:24:39.962Z,6.60
2023-04-30T10:27:08.800Z,6.20
2023-04-30T10:29:37.115Z,7.20
2023-04-30T10:32:06.838Z,7.20
2023-04-30T10:34:46.005Z,7.40
2023-04-30T10:37:45.678Z,7.20
2023-04-30T10:40:15.132Z,6.50
2023-04-30T10:42:47.493Z,5.90
2023-04-30T10:45:20.878Z,6.40
2023-04-30T10:47:49.471Z,6.80
2023-04-30T10:50:18.758Z,5.80
2023-04-30T10:52:47.107Z,5.60
2023-04-30T10:55:17.472Z,6.30
2023-04-30T10:57:48.541Z,6.00
2023-04-30T11:00:26.030Z,6.30
2023-04-30T11:03:04.090Z,5.70
2023-04-30T11:05:39.277Z,5.30
2023-04-30T11:08:11.974Z,5.60
2023-04-30T11:11:00.469Z,5.70
2023-04-30T11:13:28.950Z,5.50
2023-04-30T11:16:04.739Z,5.40
2023-04-30T11:21:12.428Z,4.70
2023-04-30T11:23:45.936Z,6.00
2023-04-30T11:26:18.960Z,5.40
2023-04-30T11:28:53.557Z,6.20
2023-04-30T11:31:23.039Z,5.30
2023-04-30T11:33:52.520Z,4.30
2023-04-30T11:36:29.827Z,4.70
2023-04-30T11:39:06.334Z,4.80
2023-04-30T11:41:44.037Z,4.20
2023-04-30T11:44:31.049Z,4.80
2023-04-30T11:47:03.293Z,4.60
2023-04-30T11:49:37.869Z,3.90
2023-04-30T11:52:14.821Z,4.50
2023-04-30T11:54:43.937Z,3.20
2023-04-30T11:57:17.000Z,4.10
2023-04-30T11:59:46.158Z,4.00
2023-04-30T12:02:22.567Z,3.60
2023-04-30T12:04:54.710Z,3.60
2023-04-30T12:07:26.503Z,4.10
2023-04-30T12:10:01.900Z,4.20
2023-04-30T12:12:35.510Z,8.60
2023-04-30T12:15:27.280Z,4.20
2023-04-30T12:18:00.276Z,3.40
2023-04-30T12:20:32.999Z,3.80
2023-04-30T12:23:04.468Z,3.70
2023-04-30T12:25:42.174Z,4.10
2023-04-30T12:28:14.070Z,3.10
2023-04-30T12:30:43.862Z,4.10
2023-04-30T12:33:12.185Z,3.70
2023-04-30T12:35:43.556Z,3.80
2023-04-30T12:38:18.515Z,3.40
2023-04-30T12:40:50.777Z,3.10
2023-04-30T12:43:19.290Z,3.60
2023-04-30T12:45:55.264Z,3.40
2023-04-30T12:48:25.947Z,3.60
2023-04-30T12:51:02.174Z,3.70
2023-04-30T12:53:32.132Z,3.50
2023-04-30T12:56:16.470Z,3.60
2023-04-30T12:58:47.615Z,3.60
2023-04-30T13:01:25.426Z,3.10
2023-04-30T13:03:54.262Z,3.50
2023-04-30T13:06:23.766Z,3.70
2023-04-30T13:08:58.531Z,3.20
2023-04-30T13:11:27.862Z,3.40
2023-04-30T13:13:56.839Z,3.40
2023-04-30T13:16:25.648Z,3.40
2023-04-30T13:18:55.213Z,3.30
2023-04-30T13:21:25.145Z,3.60
2023-04-30T13:23:54.843Z,2.90
2023-04-30T13:26:23.993Z,3.00
2023-04-30T13:28:52.520Z,3.40
2023-04-30T13:31:20.962Z,3.30
2023-04-30T13:33:50.369Z,3.50
2023-04-30T13:36:18.660Z,3.30
2023-04-30T13:38:47.153Z,3.20
2023-04-30T13:41:15.637Z,3.00
2023-04-30T13:43:44.794Z,3.10
2023-04-30T13:46:13.476Z,2.70
2023-04-30T13:48:48.348Z,3.30
2023-04-30T13:51:16.694Z,3.90
2023-04-30T13:53:45.162Z,3.00
2023-04-30T13:56:15.414Z,2.30
2023-04-30T13:58:44.382Z,3.10
2023-04-30T14:01:14.094Z,3.30
2023-04-30T14:03:43.629Z,3.40
2023-04-30T14:06:12.251Z,2.80
2023-04-30T14:08:40.678Z,2.50
2023-04-30T14:11:10.308Z,3.00
2023-04-30T14:13:38.575Z,3.10
2023-04-30T14:16:07.397Z,3.70
2023-04-30T14:18:38.923Z,3.00
2023-04-30T14:21:08.876Z,3.10
2023-04-30T14:23:39.343Z,3.00
2023-04-30T14:26:07.784Z,2.60
2023-04-30T14:28:37.672Z,2.60
2023-04-30T14:31:07.882Z,3.50
2023-04-30T14:33:59.875Z,2.70
2023-04-30T14:36:30.396Z,2.60
2023-04-30T14:38:59.563Z,2.60
2023-04-30T14:41:30.357Z,2.90
2023-04-30T14:44:00.199Z,2.80
2023-04-30T14:46:29.062Z,3.00
2023-04-30T14:48:57.837Z,2.30
2023-04-30T14:51:26.203Z,2.30
2023-04-30T14:54:03.986Z,3.00
2023-04-30T14:56:33.361Z,3.10
2023-04-30T14:59:07.844Z,2.50
2023-04-30T15:01:43.280Z,3.00
2023-04-30T15:04:12.030Z,2.40
2023-04-30T15:06:43.456Z,2.50
2023-04-30T15:09:18.440Z,2.80
2023-04-30T15:11:47.040Z,3.90
2023-04-30T15:14:17.157Z,3.50
2023-04-30T15:16:46.891Z,3.00
2023-04-30T15:19:19.227Z,2.50
2023-04-30T15:21:49.115Z,2.80
2023-04-30T15:27:06.863Z,3.30
2023-04-30T15:29:42.494Z,2.80
2023-04-30T15:32:15.811Z,2.90
2023-04-30T15:34:45.317Z,2.60
2023-04-30T15:37:13.769Z,2.70
2023-04-30T15:39:43.808Z,3.00
2023-04-30T15:42:18.546Z,3.30
2023-04-30T15:44:50.893Z,2.80
2023-04-30T15:47:23.898Z,3.40
2023-04-30T15:49:57.355Z,2.70
2023-04-30T15:52:30.235Z,2.90
2023-04-30T15:55:11.488Z,2.80
2023-04-30T15:57:49.254Z,2.80
2023-04-30T16:00:18.794Z,2.80
2023-04-30T16:02:47.349Z,2.50
2023-04-30T16:05:15.686Z,3.20
2023-04-30T16:07:45.692Z,2.40
2023-04-30T16:10:14.751Z,2.70
2023-04-30T16:12:43.079Z,3.10
2023-04-30T16:15:11.869Z,2.50
2023-04-30T16:17:41.236Z,3.00
2023-04-30T16:20:11.504Z,2.60
2023-04-30T16:22:39.995Z,2.70
2023-04-30T16:25:10.147Z,2.70
2023-04-30T16:27:40.543Z,3.20
2023-04-30T16:30:09.743Z,2.90
2023-04-30T16:32:38.047Z,2.30
2023-04-30T16:35:06.860Z,2.20
2023-04-30T16:37:35.924Z,3.10
2023-04-30T16:40:06.461Z,3.20
2023-04-30T16:42:35.096Z,3.20
2023-04-30T16:45:04.920Z,3.20
2023-04-30T16:47:33.337Z,3.20
2023-04-30T16:50:02.195Z,3.30
2023-04-30T16:52:31.134Z,3.60
2023-04-30T16:54:59.610Z,4.50
2023-04-30T16:57:31.600Z,4.70
2023-04-30T17:00:00.144Z,5.10
2023-04-30T17:02:34.119Z,5.70
2023-04-30T17:05:05.200Z,4.00
2023-04-30T17:07:34.872Z,4.20
2023-04-30T17:10:09.502Z,3.60
2023-04-30T17:12:38.792Z,3.80
2023-04-30T17:15:09.202Z,3.70
2023-04-30T17:17:51.049Z,3.40
2023-04-30T17:20:22.058Z,3.00
2023-04-30T17:22:51.160Z,3.20
2023-04-30T17:25:19.638Z,2.60
2023-04-30T17:27:48.018Z,3.10
2023-04-30T17:30:27.633Z,3.60
2023-04-30T17:32:56.800Z,3.50
2023-04-30T17:35:25.289Z,3.10
2023-04-30T17:37:54.206Z,3.70
2023-04-30T17:40:22.731Z,4.00
2023-04-30T17:42:52.090Z,3.50
2023-04-30T17:45:20.437Z,3.80
2023-04-30T17:47:48.835Z,3.30
2023-04-30T17:50:17.365Z,3.60
2023-04-30T17:52:45.994Z,3.60
2023-04-30T17:55:17.957Z,3.90
2023-04-30T17:57:48.513Z,3.60
2023-04-30T18:00:30.101Z,4.90
2023-04-30T18:03:35.332Z,3.80
2023-04-30T18:06:20.757Z,5.40
2023-04-30T18:09:07.466Z,3.70
2023-04-30T18:11:43.651Z,4.60
2023-04-30T18:14:20.561Z,10.40
2023-04-30T18:17:05.029Z,11.00
2023-04-30T18:19:44.853Z,13.60
2023-04-30T18:22:19.783Z,12.00
2023-04-30T18:25:01.636Z,12.80
2023-04-30T18:27:35.192Z,11.40
2023-04-30T18:30:14.296Z,9.20
2023-04-30T18:32:47.451Z,8.60
2023-04-30T18:35:23.825Z,7.00
2023-04-30T18:37:57.664Z,6.30
2023-04-30T18:40:26.666Z,5.70
2023-04-30T18:43:06.679Z,6.80
2023-04-30T18:45:35.829Z,13.40
2023-04-30T18:48:05.795Z,22.40
2023-04-30T18:50:34.817Z,42.90
2023-04-30T18:53:13.020Z,50.70
2023-04-30T18:55:48.482Z,58.40
2023-04-30T18:58:17.173Z,76.40
2023-04-30T19:00:49.250Z,84.20
2023-04-30T19:03:18.186Z,55.90
2023-04-30T19:06:12.498Z,38.90
2023-04-30T19:08:40.988Z,33.90
2023-04-30T19:11:11.583Z,32.10
2023-04-30T19:13:39.845Z,30.70
2023-04-30T19:16:08.292Z,26.50
2023-04-30T19:18:38.646Z,21.50
2023-04-30T19:21:07.288Z,23.30
2023-04-30T19:23:36.002Z,96.30
2023-04-30T19:26:04.428Z,86.30
2023-04-30T19:29:04.772Z,80.30
2023-04-30T19:31:35.266Z,57.20
2023-04-30T19:34:03.940Z,43.80
2023-04-30T19:36:32.464Z,36.70
2023-04-30T19:39:00.918Z,35.00
2023-04-30T19:41:29.197Z,54.50
2023-04-30T19:43:57.437Z,70.50
2023-04-30T19:46:26.037Z,63.20
2023-04-30T19:48:54.280Z,42.20
2023-04-30T19:51:22.609Z,37.00
2023-04-30T19:53:52.418Z,34.80
2023-04-30T19:56:20.887Z,32.70
2023-04-30T19:58:49.239Z,36.30
2023-04-30T20:01:18.685Z,36.60
2023-04-30T20:03:47.168Z,37.10
2023-04-30T20:06:15.683Z,40.50
2023-04-30T20:08:44.046Z,36.80
2023-04-30T20:11:12.254Z,39.20
2023-04-30T20:13:41.811Z,37.10
2023-04-30T20:16:12.799Z,36.60
2023-04-30T20:18:42.237Z,38.10
2023-04-30T20:21:10.733Z,40.90
2023-04-30T20:23:42.265Z,41.10
2023-04-30T20:26:11.589Z,36.40
2023-04-30T20:28:40.111Z,28.20
2023-04-30T20:31:10.210Z,21.30
2023-04-30T20:33:41.327Z,18.80
2023-04-30T20:36:09.712Z,17.40
2023-04-30T20:38:38.273Z,16.40
2023-04-30T20:41:06.608Z,16.20
2023-04-30T20:43:34.898Z,11.00
2023-04-30T20:46:03.389Z,10.50
2023-04-30T20:48:31.756Z,9.80
2023-04-30T20:50:59.974Z,11.00
2023-04-30T20:53:28.385Z,10.30
2023-04-30T20:56:00.212Z,11.30
2023-04-30T20:58:28.850Z,12.30
2023-04-30T21:00:57.205Z,14.30
2023-04-30T21:03:25.881Z,12.80
2023-04-30T21:05:54.324Z,11.00
2023-04-30T21:08:22.695Z,10.50
2023-04-30T21:10:51.101Z,9.30
2023-04-30T21:13:19.599Z,9.30
2023-04-30T21:15:49.012Z,9.50
2023-04-30T21:18:17.551Z,10.10
2023-04-30T21:20:46.280Z,9.90
2023-04-30T21:23:14.717Z,9.30
2023-04-30T21:25:45.431Z,8.80
2023-04-30T21:28:13.608Z,8.30
2023-04-30T21:30:42.132Z,9.40
2023-04-30T21:33:10.461Z,8.90
2023-04-30T21:35:39.580Z,8.70
2023-04-30T21:38:08.215Z,8.80
2023-04-30T21:40:36.497Z,9.50
2023-04-30T21:43:04.982Z,9.00
2023-04-30T21:45:33.374Z,9.00
2023-04-30T21:48:01.765Z,9.10
2023-04-30T21:50:33.688Z,10.10
2023-04-30T21:53:03.427Z,9.10
2023-04-30T21:55:31.813Z,8.60
2023-04-30T21:58:00.316Z,8.50
2023-04-30T22:00:28.723Z,7.10
2023-04-30T22:02:57.111Z,7.80
2023-04-30T22:05:26.066Z,7.70
2023-04-30T22:07:55.166Z,8.20
2023-04-30T22:10:25.836Z,8.10
2023-04-30T22:12:54.239Z,8.50
2023-04-30T22:15:22.849Z,8.20
2023-04-30T22:17:51.425Z,7.60
2023-04-30T22:20:19.790Z,7.30
2023-04-30T22:22:48.191Z,8.00
2023-04-30T22:25:17.962Z,8.40
2023-04-30T22:27:47.264Z,8.60
2023-04-30T22:30:16.328Z,8.40
2023-04-30T22:32:45.325Z,8.70
2023-04-30T22:35:17.185Z,13.40
2023-04-30T22:37:45.995Z,11.60
2023-04-30T22:40:14.767Z,10.50
2023-04-30T22:42:43.933Z,9.30
2023-04-30T22:45:12.771Z,10.20
2023-04-30T22:47:42.114Z,8.90
2023-04-30T22:50:10.778Z,8.60
2023-04-30T22:52:39.264Z,10.10
2023-04-30T22:55:08.325Z,10.10
2023-04-30T22:57:36.694Z,8.70
2023-04-30T23:00:05.832Z,9.60
2023-04-30T23:02:34.430Z,9.90
2023-04-30T23:05:03.744Z,9.70
2023-04-30T23:07:32.225Z,9.80
2023-04-30T23:10:00.568Z,8.80
2023-04-30T23:12:29.307Z,8.80
2023-04-30T23:14:57.587Z,8.90
2023-04-30T23:17:27.301Z,8.10
2023-04-30T23:19:55.850Z,9.20
2023-04-30T23:22:24.588Z,8.30
2023-04-30T23:24:53.153Z,7.50
2023-04-30T23:27:21.392Z,8.90
2023-04-30T23:29:49.707Z,7.30
2023-04-30T23:32:18.648Z,7.00
2023-04-30T23:34:47.713Z,8.70
2023-04-30T23:37:19.022Z,7.20
2023-04-30T23:39:47.424Z,7.60
2023-04-30T23:42:15.739Z,9.20
2023-04-30T23:44:44.104Z,8.30
2023-04-30T23:47:12.726Z,8.90
2023-04-30T23:49:41.184Z,8.90
2023-04-30T23:52:09.707Z,8.00
2023-04-30T23:54:38.259Z,7.50
2023-04-30T23:57:06.591Z,8.20
2023-04-30T23:59:34.892Z,7.20
